• Join FlightAware (Why Join?)
  • Login
  • US Flag 
11:46AM EDT


 

Airport Tracker/Info


-or-


 

Live Flight TrackerFlight Track Log ✈ DAL268 ✈ 05-Sep-2013 ✈ KJFK - LLBG / TLV

Flight Track Log - Related Links

Times and Time Zones

All times are in EDT time to prevent confusion due to time zone crossing. See the DAL268 flight status page for this flight to view local times or setup timezone preferences in your user account.

Time Position Orientation Groundspeed Altitude Reporting Facility
EDT Latitude Longitude Course Direction KTS MPH feet Rate Location/Type
09:09PM 40.6360 -73.7800 North  Level FlightAware
09:16PM 40.5833 -73.3077 90° East  Level FlightAware Approximate
09:17PM 40.5579 -73.1368 97° East  Level FlightAware Approximate
09:18PM 40.5669 -72.9659 72° East  Level FlightAware Approximate
09:18PM 40.6350 -73.7790 66° East  Level FlightAware
09:19PM 40.6013 -72.7961 66° East  Level FlightAware Approximate
09:21PM 40.5915 -73.4159 108° East  Level FlightAware Approximate
09:22PM 40.5719 -73.2439 123° Southeast  Level FlightAware Approximate
09:23PM 40.5517 -73.0690 97° East  Level FlightAware Approximate
09:24PM 40.5831 -72.9010 72° East  Level FlightAware Approximate
09:25PM 40.6222 -72.7335 66° East  Level FlightAware Approximate
09:26PM 40.6588 -72.5647 72° East  Level FlightAware Approximate
09:35PM 40.7743 -73.5111 108° East  Level Estimated
09:36PM 40.6300 -73.7820 28° Northeast 110 127  Level FlightAware
09:36PM 40.6400 -73.7740 31° Northeast 165 190 960 Level FlightAware
09:36PM 40.6420 -73.7720 37° Northeast 169 194 1,680 Level FlightAware
09:37PM 40.6600 -73.7580 31° Northeast 170 196 800 1,740 Climbing FlightAware
09:37PM 40.6630 -73.7540 45° Northeast 171 197 900 1,800 Climbing FlightAware
09:37PM 40.6660 -73.7470 61° Northeast 175 201 1,200 1,860 Climbing FlightAware
09:37PM 40.6680 -73.7390 72° East 183 211 1,400 1,200 Climbing FlightAware
09:37PM 40.6690 -73.7240 85° East 202 232 1,600 840 Climbing FlightAware
09:38PM 40.6690 -73.6770 90° East 239 275 2,100 780 Climbing FlightAware
09:38PM 40.6690 -73.6650 90° East 251 289 2,200 600 Climbing FlightAware
09:38PM 40.6650 -73.6470 106° East 265 305 2,300 1,620 Climbing FlightAware
09:39PM 40.6520 -73.6090 114° Southeast 279 321 3,200 1,740 Climbing FlightAware
09:39PM 40.6410 -73.5800 117° Southeast 288 331 3,600 1,800 Climbing FlightAware
09:39PM 40.6330 -73.5460 107° East 292 336 4,400 2,220 Climbing FlightAware
09:40PM 40.6290 -73.5100 98° East 300 345 5,100 2,460 Climbing FlightAware
09:40PM 40.6260 -73.4820 98° East 300 345 5,900 2,820 Climbing FlightAware
09:40PM 40.6220 -73.4440 98° East 302 348 6,800 2,400 Climbing FlightAware
09:40PM 40.6170 -73.4110 101° East 306 352 7,500 2,400 Climbing FlightAware
09:41PM 40.6130 -73.3740 98° East 305 351 8,400 2,460 Climbing FlightAware
09:41PM 40.6080 -73.3430 102° East 310 357 9,000 2,040 Climbing FlightAware
09:41PM 40.6020 -73.3060 102° East 319 367 9,600 1,500 Climbing FlightAware
09:42PM 40.5900 -73.2340 102° East 346 398 10,400 960 Climbing FlightAware
09:43PM 40.5790 -73.1530 100° East 388 447 10,800 840 Climbing FlightAware
09:43PM 40.5670 -73.0680 101° East 416 479 11,400 1,200 Climbing FlightAware
09:43PM 40.5640 -73.0320 96° East 426 490 11,800 1,560 Climbing FlightAware
09:44PM 40.5760 -72.9490 79° East 434 499 12,800 1,860 Climbing FlightAware
09:45PM 40.6000 -72.8540 72° East 445 512 14,100 2,460 Climbing FlightAware
09:45PM 40.6230 -72.7870 66° East 446 513 15,300 2,460 Climbing FlightAware
09:46PM 40.6770 -72.7050 49° Northeast 444 511 16,800 2,040 Climbing FlightAware
09:46PM 40.7270 -72.6460 42° Northeast 450 518 17,900 2,040 Climbing FlightAware
09:47PM 40.7840 -72.5770 42° Northeast 456 525 19,200 2,160 Climbing FlightAware
09:47PM 40.8440 -72.5070 41° Northeast 460 529 20,500 1,920 Climbing FlightAware
09:48PM 40.9000 -72.4400 42° Northeast 464 534 21,600 1,260 Climbing FlightAware
09:49PM 40.9570 -72.3710 42° Northeast 465 535 22,100 1,140 Climbing FlightAware
09:50PM 41.0410 -72.2710 42° Northeast 476 548 23,400 840 Climbing FlightAware
09:50PM 41.0910 -72.2110 42° Northeast 476 548 23,400 1,740 Level FlightAware
09:51PM 41.1660 -72.1210 42° Northeast 499 574 25,500 2,520 Climbing FlightAware
09:51PM 41.2170 -72.0580 43° Northeast 505 581 26,100 1,200 Climbing FlightAware
09:52PM 41.2920 -71.9680 42° Northeast 511 588 27,000 1,260 Climbing FlightAware
09:53PM 41.3510 -71.8960 42° Northeast 513 590 27,800 1,320 Climbing FlightAware
09:53PM 41.4320 -71.7970 42° Northeast 518 596 28,800 1,500 Climbing FlightAware
09:54PM 41.5000 -71.7140 42° Northeast 513 590 29,900 1,020 Climbing FlightAware
09:54PM 41.5530 -71.6480 43° Northeast 514 592 30,000 60 Climbing FlightAware
09:55PM 41.6210 -71.5640 43° Northeast 513 590 30,000  Level FlightAware
09:56PM 41.6770 -71.4950 43° Northeast 510 587 30,000  Level FlightAware
09:56PM 41.7320 -71.4270 43° Northeast 509 586 30,000 240 Level FlightAware
09:57PM 41.8030 -71.3390 43° Northeast 510 587 30,300 660 Climbing FlightAware
09:57PM 41.8640 -71.2620 43° Northeast 512 589 30,900 600 Climbing FlightAware
09:58PM 41.9140 -71.2010 42° Northeast 512 589 31,000 60 Climbing FlightAware
09:59PM 41.9840 -71.1130 43° Northeast 509 586 31,000 540 Level FlightAware
09:59PM 42.0400 -71.0420 43° Northeast 507 583 31,700 1,140 Climbing FlightAware
10:00PM 42.0960 -70.9710 43° Northeast 506 582 32,300 1,080 Climbing FlightAware
10:00PM 42.1550 -70.8960 43° Northeast 507 583 32,900 480 Climbing FlightAware
10:01PM 42.2400 -70.7870 43° Northeast 508 585 33,000 60 Climbing FlightAware
10:02PM 42.3010 -70.7090 43° Northeast 507 583 33,000  Level FlightAware
10:02PM 42.3600 -70.6320 44° Northeast 499 574 33,000  Level FlightAware
10:03PM 42.4190 -70.5560 44° Northeast 498 573 33,000  Level FlightAware
10:03PM 42.4790 -70.4790 43° Northeast 498 573 33,000  Level FlightAware
10:04PM 42.5370 -70.4040 44° Northeast 497 572 33,000  Level FlightAware
10:05PM 42.5940 -70.3300 44° Northeast 497 572 33,000  Level FlightAware
10:05PM 42.6540 -70.2510 44° Northeast 497 572 33,000  Level FlightAware
10:06PM 42.7120 -70.1760 44° Northeast 497 572 33,000  Level FlightAware
10:07PM 42.7950 -70.0670 44° Northeast 497 572 33,000  Level FlightAware
10:07PM 42.8570 -69.9850 44° Northeast 497 572 33,000  Level FlightAware
10:08PM 42.9400 -69.8750 44° Northeast 496 571 33,000  Level FlightAware
10:09PM 42.9860 -69.8150 44° Northeast 496 571 33,000  Level FlightAware
10:09PM 43.0360 -69.7480 44° Northeast 496 571 33,000  Level FlightAware
10:10PM 43.0870 -69.6810 44° Northeast 496 571 33,000  Level FlightAware
10:11PM 43.1880 -69.5430 45° Northeast 498 573 33,000  Level FlightAware
10:11PM 43.2520 -69.4550 45° Northeast 498 573 33,000  Level FlightAware
10:12PM 43.3050 -69.3830 45° Northeast 498 573 33,000  Level FlightAware
10:13PM 43.3540 -69.3150 45° Northeast 498 573 33,000  Level FlightAware
10:13PM 43.4040 -69.2460 45° Northeast 498 573 33,000  Level FlightAware
10:14PM 43.5140 -69.1040 43° Northeast 502 578 33,000  Level FlightAware
10:15PM 43.5870 -69.0040 45° Northeast 502 578 33,000  Level FlightAware
10:15PM 43.6440 -68.9280 44° Northeast 502 578 33,000  Level FlightAware
10:16PM 43.7040 -68.8440 45° Northeast 503 579 33,000  Level FlightAware
10:16PM 43.7600 -68.7670 45° Northeast 503 579 33,000  Level FlightAware
10:17PM 43.8150 -68.6880 46° Northeast 503 579 33,000  Level FlightAware
10:18PM 43.8640 -68.6170 46° Northeast 503 579 33,000  Level FlightAware
10:18PM 43.9090 -68.5610 42° Northeast 654 753 33,000  Level FlightAware
10:19PM 44.0290 -68.3930 45° Northeast 511 588 33,000  Level FlightAware
10:20PM 44.0880 -68.3110 45° Northeast 512 589 33,000  Level FlightAware
10:20PM 44.1480 -68.2270 45° Northeast 515 593 33,000  Level FlightAware
10:21PM 44.2070 -68.1440 45° Northeast 519 597 33,000  Level FlightAware
10:21PM 44.2690 -68.0570 45° Northeast 522 601 33,000  Level FlightAware
10:22PM 44.3280 -67.9730 46° Northeast 527 606 33,000  Level FlightAware
10:23PM 44.3920 -67.8820 45° Northeast 529 609 33,000  Level FlightAware
10:23PM 44.4450 -67.8060 46° Northeast 531 611 33,000  Level FlightAware
10:24PM 44.5100 -67.7140 45° Northeast 533 613 33,000 -120 Level FlightAware
10:24PM 44.5720 -67.6240 46° Northeast 536 617 32,900 -120 Descending FlightAware
10:25PM 44.6310 -67.5400 45° Northeast 535 616 32,900 60 Level FlightAware
10:25PM 44.6930 -67.4500 46° Northeast 536 617 33,000 60 Climbing FlightAware
10:26PM 44.7500 -67.3690 45° Northeast 536 617 33,000  Level FlightAware
10:27PM 44.8040 -67.2910 46° Northeast 533 613 33,000  Level FlightAware
10:27PM 44.8620 -67.2050 46° Northeast 533 613 33,000  Level FlightAware
10:28PM 44.9330 -67.1030 45° Northeast 529 609 33,000  Level FlightAware
10:28PM 44.9850 -67.0310 44° Northeast 530 610 33,000  Level FlightAware
10:29PM 45.0560 -66.9320 45° Northeast 538 619 33,000  Level FlightAware
10:30PM 45.1180 -66.8450 45° Northeast 542 624 33,000  Level FlightAware
10:30PM 45.1720 -66.7690 45° Northeast 544 626 33,000 180 Level FlightAware
10:31PM 45.2340 -66.6810 45° Northeast 548 631 33,200 720 Climbing FlightAware
10:31PM 45.3060 -66.5780 45° Northeast 547 629 33,900 600 Climbing FlightAware
10:32PM 45.3670 -66.4910 45° Northeast 545 627 34,000 60 Climbing FlightAware
10:32PM 45.4210 -66.4130 45° Northeast 544 626 34,000  Level FlightAware
10:33PM 45.4920 -66.3120 45° Northeast 537 618 34,000  Level FlightAware
10:34PM 45.5540 -66.2220 45° Northeast 538 619 34,000  Level FlightAware
10:34PM 45.6080 -66.1450 45° Northeast 546 628 34,000  Level FlightAware
10:35PM 45.6690 -66.0550 46° Northeast 550 633 34,000  Level FlightAware
10:35PM 45.7400 -65.9520 45° Northeast 553 636 34,000  Level FlightAware
10:36PM 45.7930 -65.8750 45° Northeast 555 639 34,000  Level FlightAware
10:36PM 45.8580 -65.7800 45° Northeast 558 642 34,000  Level FlightAware
10:37PM 45.9170 -65.6950 45° Northeast 558 642 34,000  Level FlightAware
10:38PM 45.9730 -65.6140 45° Northeast 558 642 34,000  Level FlightAware
10:38PM 45.6850 -66.0330 226° Southwest 551 634 34,000  Level FlightAware
10:39PM 45.6260 -66.1200 226° Southwest 551 634 34,000  Level FlightAware
10:39PM 45.5720 -66.2000 226° Southwest 551 634 34,000  Level FlightAware
10:40PM 45.5180 -66.2800 226° Southwest 551 634 34,000  Level FlightAware
10:41PM 45.4630 -66.3600 226° Southwest 551 634 34,000  Level FlightAware
10:41PM 45.4090 -66.4400 226° Southwest 551 634 34,000  Level FlightAware
10:42PM 45.3530 -66.5220 226° Southwest 551 634 34,000  Level FlightAware
10:43PM 45.2990 -66.6020 226° Southwest 551 634 34,000  Level FlightAware
10:43PM 45.2450 -66.6820 226° Southwest 551 634 34,000  Level FlightAware
10:44PM 45.1910 -66.7610 226° Southwest 551 634 34,000  Level FlightAware
10:44PM 45.1370 -66.8410 226° Southwest 551 634 34,000  Level FlightAware
10:45PM 45.0820 -66.9210 226° Southwest 551 634 34,000  Level FlightAware
10:46PM 45.0280 -67.0000 226° Southwest 551 634 34,000  Level FlightAware
10:46PM 44.9730 -67.0810 226° Southwest 551 634 34,000  Level FlightAware
10:47PM 44.9180 -67.1610 226° Southwest 551 634 34,000  Level FlightAware
10:47PM 44.8640 -67.2400 226° Southwest 551 634 34,000  Level FlightAware
10:48PM 44.8100 -67.3190 226° Southwest 551 634 34,000  Level FlightAware
10:48PM 47.1500 -63.8167 226° Southwest 570 656 34,000  Level Gander Center
10:49PM 47.2333 -63.6833 47° Northeast 570 656 34,000 -60 Level Moncton Center
10:50PM 47.3333 -63.5000 51° Northeast 570 656 33,900  Descending Moncton Center
10:51PM 47.4500 -63.3333 44° Northeast 570 656 34,000  Climbing Moncton Center
10:52PM 47.5500 -63.1500 51° Northeast 570 656 33,900  Descending Moncton Center
10:53PM 47.6500 -62.9833 48° Northeast 570 656 34,000  Climbing Moncton Center
10:54PM 47.7500 -62.8000 51° Northeast 570 656 34,000  Level Moncton Center
10:55PM 47.8667 -62.6333 44° Northeast 570 656 34,000  Level Moncton Center
10:56PM 47.9667 -62.4500 51° Northeast 570 656 34,000  Level Moncton Center
10:57PM 48.0833 -62.2667 46° Northeast 580 667 34,000  Level Moncton Center
10:58PM 48.1833 -62.1167 45° Northeast 580 667 34,000  Level Moncton Center
10:59PM 48.3000 -61.9000 51° Northeast 580 667 34,000  Level Moncton Center
11:00PM 48.3833 -61.7167 56° Northeast 580 667 34,000 -60 Level Moncton Center
11:01PM 48.5167 -61.5333 42° Northeast 590 679 33,900  Descending Moncton Center
11:02PM 48.6167 -61.3500 50° Northeast 580 667 34,000  Climbing Moncton Center
11:03PM 48.7333 -61.1667 46° Northeast 590 679 33,900  Descending Moncton Center
11:04PM 48.8333 -60.9833 50° Northeast 590 679 34,000  Climbing Moncton Center
11:05PM 48.9333 -60.8000 50° Northeast 590 679 33,900  Descending Moncton Center
11:11PM 49.5270 -59.7710 50° Northeast 600 690 34,000  Climbing FlightAware
11:11PM 49.6140 -59.6100 50° Northeast 600 690 34,000  Level FlightAware
11:12PM 49.6690 -59.5100 50° Northeast 600 690 34,000  Level FlightAware
11:13PM 49.7290 -59.3960 51° Northeast 600 690 34,000  Level FlightAware
11:13PM 49.7900 -59.2840 50° Northeast 600 690 34,000  Level FlightAware
11:14PM 49.8440 -59.1830 50° Northeast 600 690 34,000  Level FlightAware
11:14PM 49.8990 -59.0820 50° Northeast 600 690 34,000  Level FlightAware
11:15PM 49.9540 -58.9810 50° Northeast 600 690 34,000  Level FlightAware
11:16PM 50.0080 -58.8790 50° Northeast 600 690 34,000  Level FlightAware
11:16PM 50.1120 -58.6410 56° Northeast 600 690 34,000  Level FlightAware
11:17PM 50.1690 -58.5080 56° Northeast 601 692 34,000  Level FlightAware
11:17PM 50.2240 -58.3820 56° Northeast 601 692 34,000  Level FlightAware
11:18PM 50.2860 -58.2380 56° Northeast 604 695 34,000  Level FlightAware
11:19PM 50.3410 -58.1110 56° Northeast 605 696 34,000  Level FlightAware
11:19PM 50.4180 -57.9340 56° Northeast 606 697 34,000  Level FlightAware
11:20PM 50.4840 -57.7840 55° Northeast 606 697 34,000  Level FlightAware
11:21PM 50.5330 -57.6740 55° Northeast 606 697 34,000  Level FlightAware
11:21PM 50.5840 -57.5600 55° Northeast 606 697 34,000  Level FlightAware
11:22PM 50.6330 -57.4490 55° Northeast 606 697 34,000  Level FlightAware
11:23PM 50.6820 -57.3390 55° Northeast 606 697 34,000  Level FlightAware
11:23PM 50.7310 -57.2280 55° Northeast 606 697 34,000  Level FlightAware
11:24PM 50.7800 -57.1160 55° Northeast 606 697 34,000  Level FlightAware
11:24PM 50.8300 -57.0050 54° Northeast 606 697 34,000  Level FlightAware
11:25PM 50.8790 -56.8940 55° Northeast 606 697 34,000  Level FlightAware
11:26PM 50.9290 -56.7790 55° Northeast 606 697 34,000  Level FlightAware
11:26PM 50.9780 -56.6680 55° Northeast 606 697 34,000  Level FlightAware
11:27PM 51.0280 -56.5560 55° Northeast 606 697 34,000  Level FlightAware
11:27PM 51.0770 -56.4440 55° Northeast 606 697 34,000  Level FlightAware
11:28PM 51.1260 -56.3320 55° Northeast 606 697 34,000  Level FlightAware
11:29PM 51.1750 -56.2200 55° Northeast 606 697 34,000  Level FlightAware
11:29PM 51.2240 -56.1080 55° Northeast 606 697 34,000  Level FlightAware
11:30PM 51.3667 -55.5667 55° Northeast 590 679 34,000 -60 Level Gander Center
11:31PM 51.4500 -55.3167 62° Northeast 590 679 33,900 -60 Descending Gander Center
11:32PM 51.5500 -55.1167 51° Northeast 580 667 33,900  Level Gander Center
11:33PM 51.6333 -54.8833 60° Northeast 590 679 33,900  Level Gander Center
11:34PM 51.7167 -54.6667 58° Northeast 590 679 33,900  Level Gander Center
11:35PM 51.8167 -54.4333 55° Northeast 590 679 33,900  Level Gander Center
11:36PM 51.8833 -54.2333 62° Northeast 580 667 33,900 60 Level Gander Center
11:36PM 51.9167 -54.0833 68° East 580 667 34,000 180 Climbing Gander Center
11:37PM 52.2167 -53.3667 68° East 562 647 34,000  Level ETMS Enhanced Traffic Management System
11:37PM 52.0167 -53.8833 51° Northeast 580 667 34,000  Level Gander Center
11:38PM 52.1000 -53.6500 60° Northeast 590 679 34,000  Level Gander Center
11:39PM 52.1667 -53.4167 65° Northeast 590 679 34,000  Level Gander Center
11:40PM 52.2333 -53.1833 65° Northeast 600 690 34,000  Level Gander Center
11:41PM 52.3000 -52.9333 66° East 590 679 34,000  Level Gander Center
11:42PM 52.3667 -52.7000 65° Northeast 580 667 34,000  Level Gander Center
11:43PM 52.4333 -52.4333 68° East 590 679 34,000 -60 Level Gander Center
11:44PM 52.4833 -52.2000 71° East 590 679 33,900 -60 Descending Gander Center
11:45PM 52.5500 -51.9500 66° East 580 667 33,900  Level Gander Center
11:46PM 52.6000 -51.7167 70° East 580 667 34,000  Climbing Gander Center
11:47PM 52.6667 -51.4500 68° East 590 679 33,900 -60 Descending Gander Center
11:48PM 52.7167 -51.2167 70° East 590 679 33,900  Level Gander Center
11:49PM 52.7500 -50.9500 78° East 580 667 34,000  Climbing Gander Center
11:50PM 52.8167 -50.6833 67° East 590 679 33,900  Descending Gander Center
11:51PM 52.8667 -50.4500 70° East 590 679 34,000  Climbing Gander Center
11:52PM 52.9333 -50.1833 67° East 590 679 33,900  Descending Gander Center
11:54PM 53.0000 -50.0000 67° East 558 642 34,000  Climbing ETMS Enhanced Traffic Management System
12:01AM 53.4653 -48.0788 69° East 558 642 34,000  Level FlightAware Transoceanic
12:02AM 53.5212 -47.8358 69° East 558 642 34,000  Level FlightAware Transoceanic
12:04AM 53.6653 -47.1967 69° East 558 642 34,000  Level FlightAware Transoceanic
12:06AM 53.7401 -46.8571 70° East 558 642 34,000  Level FlightAware Transoceanic
12:07AM 53.7936 -46.6109 70° East 558 642 34,000  Level FlightAware Transoceanic
12:08AM 53.8466 -46.3640 70° East 558 642 34,000  Level FlightAware Transoceanic
12:09AM 53.8990 -46.1165 70° East 558 642 34,000  Level FlightAware Transoceanic
12:10AM 53.9510 -45.8684 71° East 558 642 34,000  Level FlightAware Transoceanic
12:11AM 54.0024 -45.6197 71° East 558 642 34,000  Level FlightAware Transoceanic
12:12AM 54.0533 -45.3704 71° East 558 642 34,000  Level FlightAware Transoceanic
12:13AM 54.1037 -45.1204 71° East 558 642 34,000  Level FlightAware Transoceanic
12:14AM 54.1536 -44.8699 71° East 558 642 34,000  Level FlightAware Transoceanic
12:15AM 54.2030 -44.6187 72° East 558 642 34,000  Level FlightAware Transoceanic
12:16AM 54.2519 -44.3670 72° East 558 642 34,000  Level FlightAware Transoceanic
12:17AM 54.3002 -44.1146 72° East 558 642 34,000  Level FlightAware Transoceanic
12:18AM 54.3479 -43.8617 72° East 558 642 34,000  Level FlightAware Transoceanic
12:19AM 54.3952 -43.6082 72° East 558 642 34,000  Level FlightAware Transoceanic
12:20AM 54.4419 -43.3541 73° East 558 642 34,000  Level FlightAware Transoceanic
12:21AM 54.4881 -43.0994 73° East 558 642 34,000  Level FlightAware Transoceanic
12:22AM 54.5338 -42.8442 73° East 558 642 34,000  Level FlightAware Transoceanic
12:23AM 54.5789 -42.5884 73° East 558 642 34,000  Level FlightAware Transoceanic
12:24AM 54.6235 -42.3320 73° East 558 642 34,000  Level FlightAware Transoceanic
12:25AM 54.6675 -42.0750 74° East 558 642 34,000  Level FlightAware Transoceanic
12:26AM 54.7110 -41.8176 74° East 558 642 34,000  Level FlightAware Transoceanic
12:27AM 54.7539 -41.5595 74° East 558 642 34,000  Level FlightAware Transoceanic
12:28AM 54.7963 -41.3009 74° East 558 642 34,000  Level FlightAware Transoceanic
12:29AM 54.8382 -41.0418 74° East 558 642 34,000  Level FlightAware Transoceanic
12:30AM 54.8795 -40.7821 75° East 558 642 34,000  Level FlightAware Transoceanic
12:31AM 54.9202 -40.5219 75° East 558 642 34,000  Level FlightAware Transoceanic
12:32AM 54.9604 -40.2612 75° East 558 642 34,000  Level FlightAware Transoceanic
12:33AM 54.9970 -40.0202 75° East  Level FlightAware Approximate
12:34AM 55.0331 -39.7787 75° East  Level FlightAware Approximate
12:34AM 55.0000 -40.0000 86° East 557 641 34,000  Level ETMS Enhanced Traffic Management System
12:35AM 55.0083 -39.7927 86° East  Level FlightAware Approximate
12:36AM 55.0179 -39.5441 86° East  Level FlightAware Approximate
12:37AM 55.0269 -39.2954 86° East  Level FlightAware Approximate
12:38AM 55.0354 -39.0466 86° East  Level FlightAware Approximate
12:39AM 55.0434 -38.7977 87° East  Level FlightAware Approximate
12:40AM 55.0629 -38.1114 87° East 557 641 34,000  Level FlightAware Transoceanic
12:41AM 55.0695 -37.8411 88° East 557 641 34,000  Level FlightAware Transoceanic
12:42AM 55.0755 -37.5708 88° East 557 641 34,000  Level FlightAware Transoceanic
12:43AM 55.0809 -37.3004 88° East 557 641 34,000  Level FlightAware Transoceanic
12:44AM 55.0857 -37.0299 88° East 557 641 34,000  Level FlightAware Transoceanic
12:45AM 55.0899 -36.7594 89° East 557 641 34,000  Level FlightAware Transoceanic
12:46AM 55.0935 -36.4888 89° East 557 641 34,000  Level FlightAware Transoceanic
12:47AM 55.0965 -36.2182 89° East 557 641 34,000  Level FlightAware Transoceanic
12:48AM 55.0989 -35.9475 89° East 557 641 34,000  Level FlightAware Transoceanic
12:49AM 55.1007 -35.6768 89° East 557 641 34,000  Level FlightAware Transoceanic
12:50AM 55.1019 -35.4061 90° East 557 641 34,000  Level FlightAware Transoceanic
12:51AM 55.1025 -35.1354 90° East 557 641 34,000  Level FlightAware Transoceanic
12:52AM 55.1025 -34.8646 90° East 557 641 34,000  Level FlightAware Transoceanic
12:53AM 55.1019 -34.5939 90° East 557 641 34,000  Level FlightAware Transoceanic
12:54AM 55.1007 -34.3232 91° East 557 641 34,000  Level FlightAware Transoceanic
12:55AM 55.0989 -34.0525 91° East 557 641 34,000  Level FlightAware Transoceanic
12:56AM 55.0965 -33.7818 91° East 557 641 34,000  Level FlightAware Transoceanic
12:57AM 55.0935 -33.5112 91° East 557 641 34,000  Level FlightAware Transoceanic
12:58AM 55.0899 -33.2406 91° East 557 641 34,000  Level FlightAware Transoceanic
12:59AM 55.0857 -32.9701 92° East 557 641 34,000  Level FlightAware Transoceanic
01:00AM 55.0809 -32.6996 92° East 557 641 34,000  Level FlightAware Transoceanic
01:01AM 55.0755 -32.4292 92° East 557 641 34,000  Level FlightAware Transoceanic
01:02AM 55.0695 -32.1589 92° East 557 641 34,000  Level FlightAware Transoceanic
01:03AM 55.0629 -31.8886 93° East 557 641 34,000  Level FlightAware Transoceanic
01:04AM 55.0557 -31.6185 93° East 557 641 34,000  Level FlightAware Transoceanic
01:05AM 55.0479 -31.3484 93° East 557 641 34,000  Level FlightAware Transoceanic
01:06AM 55.0395 -31.0785 93° East 557 641 34,000  Level FlightAware Transoceanic
01:07AM 55.0305 -30.8087 93° East 557 641 34,000  Level FlightAware Transoceanic
01:08AM 55.0210 -30.5390 94° East 557 641 34,000  Level FlightAware Transoceanic
01:09AM 55.0108 -30.2694 94° East 557 641 34,000  Level FlightAware Transoceanic
01:10AM 55.0009 -30.0209 94° East  Level FlightAware Approximate
01:11AM 54.9904 -29.7726 94° East  Level FlightAware Approximate
01:12AM 54.9881 -29.7940 96° East  Level FlightAware Approximate
01:12AM 55.0000 -30.0000 96° East 543 625 34,000  Level ETMS Enhanced Traffic Management System
01:13AM 54.9733 -29.5460 96° East  Level FlightAware Approximate
01:14AM 54.9580 -29.2981 96° East  Level FlightAware Approximate
01:15AM 54.9421 -29.0505 96° East  Level FlightAware Approximate
01:16AM 54.9258 -28.8030 96° East  Level FlightAware Approximate
01:17AM 54.9090 -28.5558 97° East  Level FlightAware Approximate
01:18AM 54.8430 -27.6517 98° East 543 625 34,000  Level FlightAware Transoceanic
01:19AM 54.8228 -27.3920 98° East 543 625 34,000  Level FlightAware Transoceanic
01:20AM 54.8020 -27.1325 98° East 543 625 34,000  Level FlightAware Transoceanic
01:21AM 54.7807 -26.8733 98° East 543 625 34,000  Level FlightAware Transoceanic
01:22AM 54.7588 -26.6144 98° East 543 625 34,000  Level FlightAware Transoceanic
01:23AM 54.7364 -26.3558 99° East 543 625 34,000  Level FlightAware Transoceanic
01:24AM 54.7134 -26.0975 99° East 543 625 34,000  Level FlightAware Transoceanic
01:25AM 54.6899 -25.8394 99° East 543 625 34,000  Level FlightAware Transoceanic
01:26AM 54.6658 -25.5817 99° East 543 625 34,000  Level FlightAware Transoceanic
01:27AM 54.6412 -25.3242 99° East 543 625 34,000  Level FlightAware Transoceanic
01:28AM 54.6160 -25.0671 100° East 543 625 34,000  Level FlightAware Transoceanic
01:29AM 54.5903 -24.8103 100° East 543 625 34,000  Level FlightAware Transoceanic
01:30AM 54.5640 -24.5538 100° East 543 625 34,000  Level FlightAware Transoceanic
01:31AM 54.5372 -24.2977 100° East 543 625 34,000  Level FlightAware Transoceanic
01:32AM 54.5099 -24.0419 101° East 543 625 34,000  Level FlightAware Transoceanic
01:33AM 54.4820 -23.7865 101° East 543 625 34,000  Level FlightAware Transoceanic
01:34AM 54.4536 -23.5314 101° East 543 625 34,000  Level FlightAware Transoceanic
01:35AM 54.4246 -23.2766 101° East 543 625 34,000  Level FlightAware Transoceanic
01:36AM 54.3951 -23.0222 101° East 543 625 34,000  Level FlightAware Transoceanic
01:37AM 54.3651 -22.7682 102° East 543 625 34,000  Level FlightAware Transoceanic
01:38AM 54.3345 -22.5146 102° East 543 625 34,000  Level FlightAware Transoceanic
01:39AM 54.3035 -22.2613 102° East 543 625 34,000  Level FlightAware Transoceanic
01:40AM 54.2718 -22.0085 102° East 543 625 34,000  Level FlightAware Transoceanic
01:41AM 54.2397 -21.7560 102° East 543 625 34,000  Level FlightAware Transoceanic
01:42AM 54.2070 -21.5039 103° East 543 625 34,000  Level FlightAware Transoceanic
01:43AM 54.1738 -21.2522 103° East 543 625 34,000  Level FlightAware Transoceanic
01:44AM 54.1401 -21.0009 103° East 543 625 34,000  Level FlightAware Transoceanic
01:45AM 54.1059 -20.7501 103° East 543 625 34,000  Level FlightAware Transoceanic
01:46AM 54.0711 -20.4996 103° East 543 625 34,000  Level FlightAware Transoceanic
01:47AM 54.0358 -20.2496 104° East 543 625 34,000 60 Level FlightAware Transoceanic
01:48AM 54.0019 -20.0130 104° East  Level FlightAware Approximate
01:49AM 53.9674 -19.7768 104° East  Level FlightAware Approximate
01:50AM 53.9776 -19.7867 100° East  Level FlightAware Approximate
01:51AM 53.9520 -19.5474 100° East  Level FlightAware Approximate
01:52AM 53.9258 -19.3084 100° East  Level FlightAware Approximate
01:53AM 53.8993 -19.0697 101° East  Level FlightAware Approximate
01:54AM 53.8722 -18.8313 101° East  Level FlightAware Approximate
01:55AM 53.8447 -18.5932 101° East  Level FlightAware Approximate
01:56AM 53.8167 -18.3554 101° East  Level FlightAware Approximate
01:57AM 53.7882 -18.1180 101° East  Level FlightAware Approximate
01:58AM 53.7593 -17.8808 102° East  Level FlightAware Approximate
01:59AM 53.7299 -17.6440 102° East  Level FlightAware Approximate
02:00AM 53.7000 -17.4075 102° East  Level FlightAware Approximate
02:01AM 53.6697 -17.1714 102° East  Level FlightAware Approximate
02:02AM 53.6389 -16.9356 102° East  Level FlightAware Approximate
02:03AM 53.6076 -16.7002 103° East  Level FlightAware Approximate
02:04AM 53.5759 -16.4651 103° East  Level FlightAware Approximate
02:05AM 53.5437 -16.2304 103° East  Level FlightAware Approximate
02:06AM 53.5111 -15.9960 103° East  Level FlightAware Approximate
02:07AM 53.4780 -15.7619 103° East  Level FlightAware Approximate
02:08AM 53.4444 -15.5283 103° East  Level FlightAware Approximate
02:09AM 53.4104 -15.2950 104° East  Level FlightAware Approximate
02:10AM 53.3759 -15.0621 104° East  Level FlightAware Approximate
02:11AM 53.3414 -14.8294 104° East  Level FlightAware Approximate
02:12AM 53.3065 -14.5971 104° East  Level FlightAware Approximate
02:13AM 53.2711 -14.3651 104° East  Level FlightAware Approximate
02:14AM 53.2354 -14.1336 104° East  Level FlightAware Approximate
02:15AM 53.1991 -13.9024 105° East  Level FlightAware Approximate
02:16AM 53.1624 -13.6716 105° East  Level FlightAware Approximate
02:17AM 53.1253 -13.4412 105° East  Level FlightAware Approximate
02:17AM 52.7990 -12.8650 105° East 520 598 36,000  Level FlightAware
02:18AM 53.0877 -13.2108 105° East  Level FlightAware Approximate
02:18AM 52.7830 -12.7290 101° East 520 598 36,000  Level FlightAware
02:19AM 52.7580 -12.5600 104° East 519 597 36,000  Level FlightAware
02:19AM 52.7370 -12.4030 102° East 519 597 36,000  Level FlightAware
02:20AM 52.7210 -12.2820 102° East 518 596 36,000  Level FlightAware
02:21AM 52.7050 -12.1650 103° East 518 596 36,000  Level FlightAware
02:21AM 52.6810 -11.9970 103° East 517 595 36,000  Level FlightAware
02:22AM 52.6640 -11.8740 103° East 517 595 36,000  Level FlightAware
02:22AM 52.6460 -11.7480 103° East 517 595 36,000  Level FlightAware
02:23AM 52.6220 -11.5770 103° East 515 593 36,000  Level FlightAware
02:24AM 52.6030 -11.4480 104° East 515 593 36,000  Level FlightAware
02:24AM 52.5830 -11.3060 103° East 517 595 36,000  Level FlightAware
02:25AM 52.5650 -11.1890 104° East 518 596 36,000  Level FlightAware
02:25AM 52.5410 -11.0250 103° East 519 597 36,000  Level FlightAware
02:26AM 52.5210 -10.8930 104° East 516 594 36,000  Level FlightAware
02:27AM 52.4980 -10.7380 104° East 515 593 36,000  Level FlightAware
02:27AM 52.4790 -10.6120 104° East 515 593 36,000  Level FlightAware
02:28AM 52.4530 -10.4470 104° East 515 593 36,000  Level FlightAware
02:28AM 52.4370 -10.3400 104° East 516 594 36,000  Level FlightAware
02:29AM 52.4150 -10.1990 104° East 514 592 36,000  Level FlightAware
02:30AM 52.3910 -10.0440 104° East 512 589 36,000  Level FlightAware
02:30AM 52.3750 -9.9480 105° East 511 588 36,000  Level FlightAware
02:31AM 52.3530 -9.8070 104° East 511 588 36,000  Level FlightAware
02:31AM 52.3320 -9.6770 105° East 510 587 36,000  Level FlightAware
02:32AM 52.3070 -9.5260 105° East 509 586 36,000  Level FlightAware
02:33AM 52.2890 -9.4150 105° East 508 585 36,000  Level FlightAware
02:33AM 52.2690 -9.2920 105° East 508 585 36,000  Level FlightAware
02:34AM 52.2470 -9.1590 105° East 509 586 36,000 -120 Level FlightAware
02:34AM 52.2191 -8.9814 105° East 508 585 35,900  Descending FlightAware UK
02:34AM 52.2210 -9.0060 105° East 510 587 36,000 120 Climbing FlightAware
02:35AM 52.2030 -8.8970 105° East 511 588 36,000  Level FlightAware
02:35AM 52.1820 -8.7740 106° East 512 589 36,000  Level FlightAware
02:36AM 52.1580 -8.6370 106° East 512 589 36,000  Level FlightAware
02:37AM 52.1330 -8.4930 106° East 514 592 36,000  Level FlightAware
02:37AM 52.1140 -8.3790 106° East 513 590 36,000 -240 Level FlightAware
02:37AM 52.1049 -8.3156 106° East 513 590 35,900 -240 Descending FlightAware UK
02:38AM 52.0854 -8.2038 106° East 513 590 35,900 120 Level FlightAware UK
02:38AM 52.0910 -8.2510 106° East 512 589 36,000 120 Climbing FlightAware
02:38AM 52.0680 -8.1220 106° East 510 587 36,000  Level FlightAware
02:39AM 52.0430 -7.9770 106° East 508 585 36,000  Level FlightAware
02:40AM 52.0220 -7.8630 107° East 507 583 36,000  Level FlightAware
02:40AM 52.0000 -7.7370 106° East 506 582 36,000  Level FlightAware
02:41AM 51.9760 -7.6090 107° East 506 582 36,000  Level FlightAware
02:41AM 51.9540 -7.4850 106° East 505 581 36,000  Level FlightAware
02:42AM 51.9290 -7.3520 107° East 505 581 36,000 -120 Level FlightAware
02:43AM 51.8953 -7.1561 107° East 504 580 35,900  Descending FlightAware UK
02:43AM 51.9030 -7.2100 107° East 506 582 36,000  Climbing FlightAware
02:43AM 51.8750 -7.0475 107° East 506 582 35,900  Descending FlightAware UK
02:43AM 51.8820 -7.1010 107° East 505 581 36,000  Climbing FlightAware
02:44AM 51.8548 -6.9396 107° East 510 587 35,900  Descending FlightAware UK
02:44AM 51.8600 -6.9810 107° East 505 581 36,000 120 Climbing FlightAware
02:44AM 51.8320 -6.8360 107° East 504 580 36,000  Level FlightAware
02:45AM 51.8090 -6.7110 107° East 503 579 36,000  Level FlightAware
02:45AM 51.7890 -6.5810 104° East 507 583 36,000  Level FlightAware
02:46AM 51.7820 -6.4450 95° East 508 585 36,000 -120 Level FlightAware
02:47AM 51.7702 -6.2806 95° East 506 582 35,900  Descending FlightAware UK
02:47AM 51.7760 -6.3120 95° East 505 581 36,000 120 Climbing FlightAware
02:47AM 51.7710 -6.1640 93° East 504 580 36,000  Level FlightAware
02:48AM 51.7650 -6.0260 94° East 505 581 36,000  Level FlightAware
02:48AM 51.7600 -5.8960 94° East 504 580 36,000  Level FlightAware
02:49AM 51.7550 -5.7680 94° East 504 580 36,000 -180 Level FlightAware
02:49AM 51.7488 -5.7197 94° East 508 585 35,900 -240 Descending FlightAware UK
02:50AM 51.7442 -5.6079 94° East 508 585 35,900 120 Level FlightAware UK
02:50AM 51.7490 -5.6340 94° East 501 577 36,000  Climbing FlightAware
02:50AM 51.7383 -5.4744 94° East 506 582 35,900  Descending FlightAware UK
02:50AM 51.7420 -5.4790 94° East 499 574 36,000  Climbing FlightAware
02:51AM 51.7313 -5.3198 94° East 506 582 35,900  Descending FlightAware UK
02:51AM 51.7370 -5.3610 94° East 497 572 36,000 120 Climbing FlightAware
02:52AM 51.7300 -5.2130 94° East 494 568 36,000  Level FlightAware
02:52AM 51.7250 -5.0940 94° East 492 566 36,000  Level FlightAware
02:53AM 51.7180 -4.9640 95° East 490 564 36,000  Level FlightAware
02:53AM 51.7110 -4.8290 95° East 489 563 36,000  Level FlightAware
02:54AM 51.7060 -4.7180 94° East 489 563 36,000  Level FlightAware
02:54AM 51.6990 -4.5840 95° East 490 564 36,000  Level FlightAware
02:55AM 51.6920 -4.4590 95° East 490 564 36,000 -120 Level FlightAware
02:56AM 51.6806 -4.2965 95° East 494 568 35,900  Descending FlightAware UK
02:56AM 51.6850 -4.3230 95° East 489 563 36,000 120 Climbing FlightAware
02:56AM 51.6780 -4.2040 95° East 490 564 36,000 -120 Level FlightAware
02:57AM 51.6675 -4.0583 95° East 496 571 35,900  Descending FlightAware UK
02:57AM 51.6720 -4.0840 95° East 492 566 36,000 120 Climbing FlightAware
02:57AM 51.6630 -3.9410 96° East 491 565 36,000  Level FlightAware
02:58AM 51.6560 -3.8200 95° East 491 565 36,000  Level FlightAware
02:58AM 51.6490 -3.6950 95° East 492 566 36,000  Level FlightAware
02:59AM 51.6410 -3.5670 96° East 492 566 36,000  Level FlightAware
03:00AM 51.6330 -3.4350 96° East 495 570 36,000  Level FlightAware
03:00AM 51.6250 -3.3130 96° East 498 573 36,000 -180 Level FlightAware
03:00AM 51.6208 -3.2728 96° East 494 568 35,900 -240 Descending FlightAware UK
03:01AM 51.6138 -3.1623 96° East 490 564 35,900 120 Level FlightAware UK
03:01AM 51.6170 -3.1810 96° East 499 574 36,000 120 Climbing FlightAware
03:01AM 51.6080 -3.0464 96° East 502 578 36,000  Level FlightAware ADS-B
03:02AM 51.6000 -2.9254 96° East 503 579 36,000  Level FlightAware ADS-B
03:02AM 51.5926 -2.8138 96° East 503 579 36,000  Level FlightAware ADS-B
03:03AM 51.5838 -2.6860 96° East 500 575 36,000  Level FlightAware ADS-B
03:04AM 51.5753 -2.5609 96° East 496 571 36,000  Level FlightAware ADS-B
03:04AM 51.5674 -2.4493 96° East 493 567 36,000  Level FlightAware ADS-B
03:05AM 51.5592 -2.3337 96° East 490 564 36,000  Level FlightAware ADS-B
03:05AM 51.5509 -2.2196 97° East 488 562 36,000  Level FlightAware ADS-B
03:06AM 51.5421 -2.1014 97° East 486 559 36,000  Level FlightAware ADS-B
03:06AM 51.5341 -1.9914 97° East 484 557 36,000  Level FlightAware ADS-B
03:07AM 51.5260 -1.8845 97° East 481 554 36,000  Level FlightAware ADS-B
03:07AM 51.5178 -1.7756 97° East 479 551 36,000  Level FlightAware ADS-B
03:08AM 51.5095 -1.6685 97° East 476 548 36,000  Level FlightAware ADS-B
03:08AM 51.5011 -1.5601 97° East 475 547 36,000  Level FlightAware ADS-B
03:09AM 51.4920 -1.4457 97° East 474 545 36,000  Level FlightAware ADS-B
03:09AM 51.4820 -1.3213 97° East 472 543 36,000  Level FlightAware ADS-B
03:10AM 51.4733 -1.2145 97° East 472 543 36,000  Level FlightAware ADS-B
03:10AM 51.4646 -1.1053 97° East 472 543 36,000  Level FlightAware ADS-B
03:11AM 51.4515 -0.9449 97° East 469 540 36,000  Level FlightAware ADS-B
03:12AM 51.4427 -0.8405 98° East 466 536 36,000 -120 Level FlightAware ADS-B
03:12AM 51.4338 -0.7346 98° East 462 532 35,900  Descending FlightAware ADS-B
03:13AM 51.4250 -0.6315 98° East 460 529 36,000 60 Climbing FlightAware ADS-B
03:13AM 51.4159 -0.5273 98° East 459 528 36,000  Level FlightAware ADS-B
03:14AM 51.4070 -0.4243 98° East 461 531 36,000  Level FlightAware ADS-B
03:14AM 51.3959 -0.2978 98° East 465 535 36,000  Level FlightAware ADS-B
03:15AM 51.3861 -0.1871 98° East 467 537 36,000  Level FlightAware ADS-B
03:15AM 51.3768 -0.0841 98° East 467 537 36,000  Level FlightAware ADS-B
03:16AM 51.3663 0.0304 98° East 468 539 36,000 -120 Level FlightAware ADS-B
03:17AM 51.3564 0.1388 98° East 467 537 35,900  Descending FlightAware ADS-B
03:17AM 51.3464 0.2447 99° East 468 539 36,000 60 Climbing FlightAware ADS-B
03:18AM 51.3366 0.3510 98° East 469 540 36,000 -120 Level FlightAware ADS-B
03:18AM 51.3231 0.4787 98° East 490 564 35,900  Descending FlightAware UK
03:18AM 51.3215 0.5100 98° East 468 539 36,000 120 Climbing FlightAware ADS-B
03:19AM 51.3113 0.6181 99° East 469 540 36,000  Level FlightAware ADS-B
03:19AM 51.3013 0.7212 99° East 471 542 36,000  Level FlightAware ADS-B
03:20AM 51.2900 0.8372 99° East 472 543 36,000  Level FlightAware ADS-B
03:20AM 51.2795 0.9438 99° East 473 544 36,000 -120 Level FlightAware ADS-B
03:21AM 51.2599 1.1189 99° East 494 568 35,900 -120 Descending FlightAware UK
03:21AM 51.2610 1.1300 99° East 471 542 35,900  Level FlightAware
03:22AM 51.2500 1.2370 99° East 470 541 35,900 60 Level FlightAware
03:23AM 51.2370 1.3630 99° East 470 541 36,000  Climbing FlightAware
03:23AM 51.2250 1.4850 99° East 469 540 35,900  Descending FlightAware
03:24AM 51.2090 1.5850 104° East 448 516 36,000  Climbing FlightAware
03:24AM 51.1740 1.6980 116° Southeast 444 511 35,900  Descending FlightAware
03:25AM 51.1470 1.7930 114° Southeast 448 516 36,000 60 Climbing FlightAware
03:25AM 51.1150 1.9130 113° Southeast 448 516 36,000  Level FlightAware
03:26AM 51.0870 2.0170 113° Southeast 444 511 36,000 -120 Level FlightAware
03:27AM 51.0487 2.1487 113° Southeast 490 564 35,900  Descending FlightAware UK
03:27AM 51.0570 2.1190 113° Southeast 444 511 36,000 360 Climbing FlightAware
03:27AM 51.0290 2.2130 115° Southeast 448 516 36,100 720 Climbing FlightAware
03:28AM 50.9902 2.3449 115° Southeast 490 564 36,800 1,320 Climbing FlightAware UK
03:28AM 50.9960 2.3250 115° Southeast 447 514 36,900 120 Climbing FlightAware
03:28AM 50.9640 2.4320 115° Southeast 448 516 36,900  Level FlightAware
03:29AM 50.9330 2.5370 115° Southeast 447 514 36,900  Level FlightAware
03:30AM 50.8942 2.6677 115° Southeast 490 564 36,900 120 Level FlightAware UK
03:30AM 50.9020 2.6430 115° Southeast 446 513 37,000 120 Climbing FlightAware
03:30AM 50.8720 2.7400 116° Southeast 446 513 37,000 -120 Level FlightAware
03:31AM 50.8410 2.8440 115° Southeast 445 512 36,900 -120 Descending FlightAware
03:31AM 50.8110 2.9430 116° Southeast 443 510 36,900  Level FlightAware
03:32AM 50.7709 3.0737 116° Southeast 488 562 36,900  Level FlightAware UK
03:32AM 50.7810 3.0430 116° Southeast 440 506 36,900 120 Level FlightAware
03:32AM 50.7480 3.1510 116° Southeast 439 505 37,000 60 Climbing FlightAware
03:33AM 50.7200 3.2430 116° Southeast 440 506 37,000  Level FlightAware
03:34AM 50.6890 3.3430 116° Southeast 440 506 37,000 -180 Level FlightAware
03:34AM 50.6741 3.3873 116° Southeast 484 557 36,900  Descending FlightAware UK
03:34AM 50.6560 3.4500 116° Southeast 442 509 37,000  Climbing FlightAware
03:34AM 50.6416 3.4915 116° Southeast 486 559 36,900 -180 Descending FlightAware UK
03:35AM 50.6240 3.5530 116° Southeast 442 509 36,900 60 Level FlightAware
03:35AM 50.5940 3.6490 116° Southeast 444 511 37,000  Climbing FlightAware
03:36AM 50.5610 3.7550 116° Southeast 445 512 36,900  Descending FlightAware
03:37AM 50.5300 3.8530 116° Southeast 446 513 37,000  Climbing FlightAware
03:37AM 50.4980 3.9540 116° Southeast 447 514 36,900 -120 Descending FlightAware
03:38AM 50.4535 4.0855 116° Southeast 488 562 36,900 120 Level FlightAware UK
03:38AM 50.4640 4.0610 116° Southeast 448 516 37,000  Climbing FlightAware
03:38AM 50.4190 4.1892 116° Southeast 490 564 36,900 -240 Descending FlightAware UK
03:38AM 50.4340 4.1560 116° Southeast 450 518 36,900  Level FlightAware
03:39AM 50.3843 4.2939 116° Southeast 1 1 36,900 120 Level FlightAware UK
03:39AM 50.3980 4.2690 116° Southeast 450 518 37,000  Climbing FlightAware
03:39AM 50.3680 4.3630 117° Southeast 450 518 36,900  Descending FlightAware
03:40AM 50.3340 4.4690 117° Southeast 452 520 37,000 60 Climbing FlightAware
03:41AM 50.2980 4.5780 117° Southeast 454 522 37,000 -120 Level FlightAware
03:41AM 50.2680 4.6710 117° Southeast 455 524 36,900  Descending FlightAware
03:42AM 50.2370 4.7680 117° Southeast 456 525 37,000 60 Climbing FlightAware
03:42AM 50.2000 4.8800 117° Southeast 457 526 37,000  Level FlightAware
03:43AM 50.1660 4.9840 117° Southeast 457 526 37,000  Level FlightAware
03:43AM 50.1350 5.0780 117° Southeast 456 525 37,000  Level FlightAware
03:44AM 50.0960 5.1930 118° Southeast 457 526 37,000 -120 Level FlightAware
03:45AM 50.0650 5.2860 117° Southeast 457 526 36,900  Descending FlightAware
03:45AM 50.0320 5.3850 117° Southeast 456 525 37,000 60 Climbing FlightAware
03:46AM 49.9950 5.4950 118° Southeast 455 524 37,000 -120 Level FlightAware
03:46AM 49.9620 5.5930 118° Southeast 455 524 36,900  Descending FlightAware
03:47AM 49.9290 5.6920 117° Southeast 455 524 37,000 60 Climbing FlightAware
03:48AM 49.8890 5.8100 118° Southeast 456 525 37,000  Level FlightAware
03:48AM 49.8540 5.9110 118° Southeast 456 525 37,000 -120 Level FlightAware
03:49AM 49.8230 6.0010 118° Southeast 456 525 36,900  Descending FlightAware
03:49AM 49.7840 6.1140 118° Southeast 456 525 37,000 60 Climbing FlightAware
03:50AM 49.7490 6.2160 118° Southeast 457 526 37,000  Level FlightAware
03:51AM 49.7140 6.3160 118° Southeast 458 527 37,000  Level FlightAware
03:51AM 49.6770 6.4220 118° Southeast 459 528 37,000 -120 Level FlightAware
03:52AM 49.6480 6.5060 118° Southeast 459 528 36,900 -120 Descending FlightAware
03:52AM 49.6050 6.6280 119° Southeast 460 529 36,900 60 Level FlightAware
03:53AM 49.5710 6.7220 119° Southeast 460 529 37,000 60 Climbing FlightAware
03:53AM 49.5430 6.8030 118° Southeast 460 529 37,000 -120 Level FlightAware
03:54AM 49.4960 6.9340 119° Southeast 461 531 36,900  Descending FlightAware
03:55AM 49.4570 7.0430 119° Southeast 461 531 37,000 60 Climbing FlightAware
03:55AM 49.4180 7.1510 119° Southeast 460 529 37,000  Level FlightAware
03:56AM 49.3860 7.2410 119° Southeast 461 531 37,000 -120 Level FlightAware
03:57AM 49.3490 7.3410 120° Southeast 461 531 36,900  Descending FlightAware
03:57AM 49.3120 7.4440 119° Southeast 462 532 37,000 60 Climbing FlightAware
03:58AM 49.2740 7.5460 120° Southeast 462 532 37,000  Level FlightAware
03:58AM 49.2350 7.6530 119° Southeast 464 534 37,000  Level FlightAware
03:59AM 49.2020 7.7420 120° Southeast 464 534 37,000  Level FlightAware
04:00AM 49.1640 7.8450 119° Southeast 465 535 37,000  Level FlightAware
04:00AM 49.1270 7.9440 120° Southeast 466 536 37,000  Level FlightAware
04:01AM 49.0910 8.0410 120° Southeast 467 537 37,000  Level FlightAware
04:01AM 49.0540 8.1400 120° Southeast 467 537 37,000  Level FlightAware
04:02AM 49.0130 8.2480 120° Southeast 468 539 37,000 -120 Level FlightAware
04:02AM 48.9740 8.3510 120° Southeast 469 540 36,900  Descending FlightAware
04:03AM 48.9370 8.4500 120° Southeast 469 540 37,000 60 Climbing FlightAware
04:04AM 48.9020 8.5420 120° Southeast 470 541 37,000  Level FlightAware
04:04AM 48.8620 8.6460 120° Southeast 470 541 37,000 -120 Level FlightAware
04:05AM 48.8250 8.7430 120° Southeast 470 541 36,900  Descending FlightAware
04:05AM 48.7840 8.8470 121° Southeast 470 541 37,000 60 Climbing FlightAware
04:06AM 48.7490 8.9390 120° Southeast 470 541 37,000  Level FlightAware
04:06AM 48.7070 9.0240 127° Southeast 464 534 37,000  Level FlightAware
04:07AM 48.6700 9.0610 147° Southeast 462 532 37,000 -120 Level FlightAware
04:07AM 48.6070 9.1070 154° Southeast 463 533 36,900  Descending FlightAware
04:08AM 48.5400 9.1760 146° Southeast 463 533 37,000 60 Climbing FlightAware
04:08AM 48.4840 9.2310 147° Southeast 464 534 37,000 -120 Level FlightAware
04:09AM 48.4190 9.2910 149° Southeast 465 535 36,900 -120 Descending FlightAware
04:10AM 48.3530 9.3520 148° Southeast 466 536 36,900  Level FlightAware
04:10AM 48.2930 9.4080 148° Southeast 467 537 36,900  Level FlightAware
04:11AM 48.2300 9.4800 143° Southeast 468 539 36,900  Level FlightAware
04:11AM 48.1770 9.5490 139° Southeast 469 540 36,900  Level FlightAware
04:12AM 48.1140 9.6300 139° Southeast 469 540 36,900 60 Level FlightAware
04:13AM 48.0560 9.7060 139° Southeast 469 540 37,000  Climbing FlightAware
04:13AM 48.0000 9.7770 140° Southeast 469 540 36,900  Descending FlightAware
04:14AM 47.9460 9.8470 139° Southeast 469 540 37,000  Climbing FlightAware
04:14AM 47.8870 9.9220 140° Southeast 469 540 36,900  Descending FlightAware
04:15AM 47.8280 9.9920 141° Southeast 470 541 37,000  Climbing FlightAware
04:16AM 47.7640 10.0540 147° Southeast 471 542 36,900 -120 Descending FlightAware
04:16AM 47.6980 10.1120 149° Southeast 471 542 36,900  Level FlightAware
04:17AM 47.6370 10.1660 149° Southeast 472 543 36,900  Level FlightAware
04:17AM 47.5470 10.2470 149° Southeast 472 543 36,900  Level FlightAware
04:18AM 47.4730 10.3160 148° Southeast 473 544 36,900 60 Level FlightAware
04:19AM 47.4090 10.3740 148° Southeast 473 544 37,000 480 Climbing FlightAware
04:19AM 47.3430 10.4360 148° Southeast 474 545 37,500 1,020 Climbing FlightAware
04:20AM 47.2850 10.4880 149° Southeast 473 544 38,100 1,020 Climbing FlightAware
04:20AM 47.2150 10.5520 148° Southeast 474 545 38,700 720 Climbing FlightAware
04:21AM 47.1530 10.6070 149° Southeast 475 547 39,000 120 Climbing FlightAware
04:22AM 47.0850 10.6680 149° Southeast 474 545 38,900  Descending FlightAware
04:22AM 47.0110 10.7250 152° Southeast 473 544 39,000 60 Climbing FlightAware
04:23AM 46.9510 10.7600 158° South 474 545 39,000 -120 Level FlightAware
04:23AM 46.8780 10.8020 159° South 473 544 38,900 -120 Descending FlightAware
04:24AM 46.8400 10.8280 155° Southeast 473 544 38,900  Level FlightAware
04:24AM 46.7880 10.8910 140° Southeast 473 544 38,900 60 Level FlightAware
04:25AM 46.7400 10.9540 138° Southeast 474 545 39,000  Climbing FlightAware
04:25AM 46.6720 11.0360 140° Southeast 474 545 38,900 -120 Descending FlightAware
04:26AM 46.6100 11.1160 138° Southeast 476 548 38,900 60 Level FlightAware
04:26AM 46.5580 11.1850 138° Southeast 477 549 39,000 60 Climbing FlightAware
04:27AM 46.5050 11.2560 137° Southeast 478 550 39,000 -120 Level FlightAware
04:28AM 46.4470 11.3420 134° Southeast 481 554 38,900  Descending FlightAware
04:28AM 46.4000 11.4240 130° Southeast 482 555 39,000 60 Climbing FlightAware
04:29AM 46.3390 11.5280 130° Southeast 484 557 39,000 -120 Level FlightAware
04:29AM 46.2910 11.6150 129° Southeast 484 557 38,900  Descending FlightAware
04:30AM 46.2390 11.7200 126° Southeast 484 557 39,000 60 Climbing FlightAware
04:31AM 46.1940 11.8130 125° Southeast 485 558 39,000 -120 Level FlightAware
04:31AM 46.1470 11.9050 126° Southeast 486 559 38,900  Descending FlightAware
04:32AM 46.1050 11.9880 126° Southeast 486 559 39,000 60 Climbing FlightAware
04:32AM 46.0520 12.0910 127° Southeast 487 560 39,000 -120 Level FlightAware
04:33AM 46.0080 12.1770 126° Southeast 485 558 38,900 -120 Descending FlightAware
04:34AM 45.9650 12.2610 126° Southeast 485 558 38,900 60 Level FlightAware
04:34AM 45.9160 12.3550 127° Southeast 484 557 39,000 60 Climbing FlightAware
04:35AM 45.8680 12.4480 127° Southeast 484 557 39,000  Level FlightAware
04:35AM 45.8240 12.5340 126° Southeast 484 557 39,000  Level FlightAware
04:36AM 45.7740 12.6300 127° Southeast 485 558 39,000  Level FlightAware
04:36AM 45.7280 12.7180 127° Southeast 486 559 39,000 -120 Level FlightAware
04:37AM 45.6810 12.8080 127° Southeast 488 562 38,900  Descending FlightAware
04:38AM 45.6330 12.8980 127° Southeast 489 563 39,000  Climbing FlightAware
04:38AM 45.5850 12.9910 126° Southeast 485 558 38,900 -120 Descending FlightAware
04:39AM 45.5370 13.0810 127° Southeast 490 564 38,900 60 Level FlightAware
04:39AM 45.4900 13.1710 127° Southeast 490 564 39,000 60 Climbing FlightAware
04:40AM 45.4420 13.2620 127° Southeast 486 559 39,000 -120 Level FlightAware
04:41AM 45.3950 13.3500 127° Southeast 486 559 38,900 -120 Descending FlightAware
04:41AM 45.3390 13.4560 127° Southeast 485 558 38,900 60 Level FlightAware
04:42AM 45.2960 13.5380 127° Southeast 486 559 39,000 60 Climbing FlightAware
04:42AM 45.2470 13.6290 127° Southeast 486 559 39,000 -120 Level FlightAware
04:43AM 45.1890 13.7380 127° Southeast 487 560 38,900  Descending FlightAware
04:44AM 45.1480 13.8150 127° Southeast 487 560 39,000 60 Climbing FlightAware
04:44AM 45.1000 13.9040 127° Southeast 487 560 39,000  Level FlightAware
04:45AM 45.0450 14.0040 128° Southeast 487 560 39,000 -120 Level FlightAware
04:45AM 45.0040 14.0820 127° Southeast 488 562 38,900  Descending FlightAware
04:46AM 44.9570 14.1680 128° Southeast 488 562 39,000 60 Climbing FlightAware
04:47AM 44.9060 14.2620 127° Southeast 489 563 39,000  Level FlightAware
04:47AM 44.8510 14.3610 128° Southeast 495 570 39,000 -120 Level FlightAware
04:48AM 44.7950 14.4640 127° Southeast 495 570 38,900  Descending FlightAware
04:48AM 44.7440 14.5560 128° Southeast 495 570 39,000  Climbing FlightAware
04:49AM 44.6970 14.6420 128° Southeast 495 570 38,900  Descending FlightAware
04:50AM 44.6480 14.7310 128° Southeast 494 568 39,000 60 Climbing FlightAware
04:50AM 44.5920 14.8320 128° Southeast 495 570 39,000 -120 Level FlightAware
04:51AM 44.5430 14.9200 128° Southeast 494 568 38,900 -120 Descending FlightAware
04:51AM 44.4990 15.0010 127° Southeast 494 568 38,900  Level FlightAware
04:52AM 44.4490 15.0870 129° Southeast 492 566 38,900 60 Level FlightAware
04:53AM 44.3930 15.1870 128° Southeast 491 565 39,000  Climbing FlightAware
04:54AM 44.3150 15.3260 128° Southeast 489 563 38,900 -120 Descending FlightAware
04:54AM 44.2660 15.4110 129° Southeast 482 555 38,900 60 Level FlightAware
04:55AM 44.2250 15.4850 128° Southeast 487 560 39,000  Climbing FlightAware
04:55AM 44.1760 15.5710 128° Southeast 487 560 38,900  Descending FlightAware
04:56AM 44.1240 15.6620 129° Southeast 488 562 39,000  Climbing FlightAware
04:56AM 44.0790 15.7400 129° Southeast 490 564 38,900  Descending FlightAware
04:57AM 44.0290 15.8280 128° Southeast 491 565 39,000  Climbing FlightAware
04:57AM 43.9810 15.9110 129° Southeast 492 566 38,900 -120 Descending FlightAware
04:58AM 43.9250 16.0070 129° Southeast 493 567 38,900  Level FlightAware
04:59AM 43.8830 16.0810 128° Southeast 494 568 38,900 60 Level FlightAware
04:59AM 43.8280 16.1750 129° Southeast 495 570 39,000  Climbing FlightAware
05:00AM 43.7740 16.2680 129° Southeast 496 571 38,900 -120 Descending FlightAware
05:00AM 43.7270 16.3480 129° Southeast 496 571 38,900  Level FlightAware
05:01AM 43.6750 16.4370 129° Southeast 496 571 38,900  Level FlightAware
05:02AM 43.6240 16.5240 129° Southeast 496 571 38,900 60 Level FlightAware
05:02AM 43.5810 16.5960 129° Southeast 496 571 39,000 60 Climbing FlightAware
05:03AM 43.5290 16.6840 129° Southeast 495 570 39,000  Level FlightAware
05:04AM 43.4610 16.7990 129° Southeast 489 563 39,000  Level FlightAware
05:04AM 43.4030 16.8970 129° Southeast 494 568 39,000  Level FlightAware
05:05AM 43.3510 16.9840 129° Southeast 495 570 39,000 -120 Level FlightAware
05:05AM 43.3020 17.0650 130° Southeast 496 571 38,900  Descending FlightAware
05:06AM 43.2490 17.1550 129° Southeast 496 571 39,000 60 Climbing FlightAware
05:07AM 43.1960 17.2420 130° Southeast 497 572 39,000 -120 Level FlightAware
05:07AM 43.1500 17.3180 130° Southeast 497 572 38,900 -120 Descending FlightAware
05:08AM 43.0960 17.4080 129° Southeast 499 574 38,900 60 Level FlightAware
05:08AM 43.0510 17.4830 129° Southeast 499 574 39,000  Climbing FlightAware
05:09AM 42.9900 17.5820 130° Southeast 501 577 38,900 -120 Descending FlightAware
05:09AM 42.9390 17.6650 130° Southeast 501 577 38,900  Level FlightAware
05:10AM 42.8860 17.7520 130° Southeast 500 575 38,900 60 Level FlightAware
05:11AM 42.8330 17.8390 130° Southeast 501 577 39,000  Climbing FlightAware
05:11AM 42.7880 17.9110 130° Southeast 501 577 38,900  Descending FlightAware
05:12AM 42.7070 18.0430 130° Southeast 501 577 39,000 60 Climbing FlightAware
05:12AM 42.6730 18.0980 130° Southeast 501 577 39,000  Level FlightAware
05:13AM 42.6170 18.1870 131° Southeast 501 577 39,000  Level FlightAware
05:14AM 42.5560 18.2790 132° Southeast 501 577 39,000  Level FlightAware
05:14AM 42.5000 18.3550 135° Southeast 502 578 39,000  Level FlightAware
05:15AM 42.4460 18.4290 135° Southeast 501 577 39,000 -120 Level FlightAware
05:15AM 42.3850 18.5100 136° Southeast 502 578 38,900  Descending FlightAware
05:16AM 42.3270 18.5890 135° Southeast 502 578 39,000 60 Climbing FlightAware
05:17AM 42.2670 18.6650 137° Southeast 503 579 39,000  Level FlightAware
05:17AM 42.2160 18.7300 137° Southeast 504 580 39,000 -120 Level FlightAware
05:18AM 42.1360 18.8300 137° Southeast 505 581 38,900  Descending FlightAware
05:18AM 42.0830 18.8960 137° Southeast 505 581 39,000  Climbing FlightAware
05:19AM 42.0170 18.9790 137° Southeast 507 583 38,900 -120 Descending FlightAware
05:20AM 41.9640 19.0460 137° Southeast 507 583 38,900 60 Level FlightAware
05:20AM 41.8930 19.1350 137° Southeast 508 585 39,000  Climbing FlightAware
05:21AM 41.8380 19.2040 137° Southeast 508 585 38,900  Descending FlightAware
05:21AM 41.7750 19.2820 137° Southeast 509 586 39,000  Climbing FlightAware
05:22AM 41.7210 19.3490 137° Southeast 509 586 38,900 -120 Descending FlightAware
05:23AM 41.6590 19.4250 138° Southeast 509 586 38,900  Level FlightAware
05:23AM 41.5960 19.5030 137° Southeast 508 585 38,900 60 Level FlightAware
05:24AM 41.5340 19.5790 137° Southeast 506 582 39,000  Climbing FlightAware
05:24AM 41.4760 19.6500 137° Southeast 505 581 38,900  Descending FlightAware
05:25AM 41.4040 19.7400 137° Southeast 504 580 39,000  Climbing FlightAware
05:26AM 41.3310 19.8410 134° Southeast 505 581 38,900 -120 Descending FlightAware
05:26AM 41.2810 19.9090 134° Southeast 506 582 38,900  Level FlightAware
05:27AM 41.2210 19.9900 135° Southeast 508 585 38,900 60 Level FlightAware
05:27AM 41.1610 20.0710 135° Southeast 509 586 39,000  Climbing FlightAware
05:28AM 41.1070 20.1430 135° Southeast 510 587 38,900  Descending FlightAware
05:28AM 41.0570 20.2080 136° Southeast 511 588 39,000 60 Climbing FlightAware
05:29AM 40.9870 20.3010 135° Southeast 514 592 39,000 -120 Level FlightAware
05:30AM 40.9250 20.3830 135° Southeast 515 593 38,900  Descending FlightAware
05:30AM 40.8640 20.4640 135° Southeast 516 594 39,000 60 Climbing FlightAware
05:31AM 40.8140 20.5290 135° Southeast 519 597 39,000  Level FlightAware
05:32AM 40.7520 20.6100 135° Southeast 519 597 39,000  Level FlightAware
05:32AM 40.6930 20.6870 135° Southeast 521 600 39,000  Level FlightAware
05:33AM 40.6350 20.7620 136° Southeast 521 600 39,000  Level FlightAware
05:33AM 40.5720 20.8440 135° Southeast 521 600 39,000  Level FlightAware
05:34AM 40.5080 20.9250 136° Southeast 520 598 39,000  Level FlightAware
05:34AM 40.4440 21.0010 138° Southeast 520 598 39,000  Level FlightAware
05:35AM 40.3860 21.0670 139° Southeast 521 600 39,000 -120 Level FlightAware
05:36AM 40.3190 21.1440 139° Southeast 523 602 38,900  Descending FlightAware
05:36AM 40.2540 21.2170 139° Southeast 523 602 39,000 60 Climbing FlightAware
05:37AM 40.1940 21.2870 138° Southeast 525 604 39,000 -120 Level FlightAware
05:37AM 40.1300 21.3640 137° Southeast 526 605 38,900 -120 Descending FlightAware
05:38AM 40.0670 21.4400 137° Southeast 526 605 38,900  Level FlightAware
05:39AM 40.0020 21.5180 137° Southeast 525 604 38,900 60 Level FlightAware
05:39AM 39.9390 21.5930 138° Southeast 526 605 39,000  Climbing FlightAware
05:40AM 39.8670 21.6780 138° Southeast 525 604 38,900 -120 Descending FlightAware
05:40AM 39.8020 21.7540 138° Southeast 524 603 38,900 60 Level FlightAware
05:41AM 39.7390 21.8290 138° Southeast 524 603 39,000 60 Climbing FlightAware
05:42AM 39.6840 21.8920 139° Southeast 524 603 39,000  Level FlightAware
05:42AM 39.6150 21.9730 138° Southeast 524 603 39,000 -120 Level FlightAware
05:43AM 39.5590 22.0390 138° Southeast 523 602 38,900  Descending FlightAware
05:43AM 39.4900 22.1190 138° Southeast 523 602 39,000  Climbing FlightAware
05:44AM 39.4210 22.1990 138° Southeast 522 601 38,900  Descending FlightAware
05:44AM 39.3610 22.2690 138° Southeast 521 600 39,000  Climbing FlightAware
05:45AM 39.2980 22.3420 138° Southeast 520 598 38,900  Descending FlightAware
05:46AM 39.2400 22.4080 139° Southeast 518 596 39,000 60 Climbing FlightAware
05:46AM 39.1740 22.4840 138° Southeast 517 595 39,000 -120 Level FlightAware
05:47AM 39.1090 22.5600 138° Southeast 514 592 38,900 -120 Descending FlightAware
05:47AM 39.0460 22.6310 139° Southeast 513 590 38,900 60 Level FlightAware
05:48AM 38.9850 22.7010 138° Southeast 512 589 39,000 60 Climbing FlightAware
05:49AM 38.9200 22.7750 138° Southeast 511 588 39,000 -120 Level FlightAware
05:49AM 38.8540 22.8490 139° Southeast 510 587 38,900  Descending FlightAware
05:50AM 38.8010 22.9100 138° Southeast 509 586 39,000  Climbing FlightAware
05:50AM 38.7370 22.9820 139° Southeast 507 583 38,900 -120 Descending FlightAware
05:51AM 38.6720 23.0560 138° Southeast 506 582 38,900 60 Level FlightAware
05:52AM 38.6130 23.1230 138° Southeast 506 582 39,000  Climbing FlightAware
05:52AM 38.5510 23.1920 139° Southeast 506 582 38,900 -120 Descending FlightAware
05:53AM 38.4860 23.2640 139° Southeast 505 581 38,900 60 Level FlightAware
05:53AM 38.4270 23.3310 138° Southeast 506 582 39,000  Climbing FlightAware
05:54AM 38.3710 23.3940 139° Southeast 505 581 38,900 -120 Descending FlightAware
05:54AM 38.3060 23.4660 139° Southeast 506 582 38,900  Level FlightAware
05:55AM 38.2410 23.5380 139° Southeast 506 582 38,900  Level FlightAware
05:56AM 38.1760 23.6100 139° Southeast 505 581 38,900  Level FlightAware
05:56AM 38.1220 23.6690 139° Southeast 504 580 38,900  Level FlightAware
05:57AM 38.0580 23.7410 138° Southeast 504 580 38,900  Level FlightAware
05:57AM 37.9990 23.8170 135° Southeast 511 588 38,900 60 Level FlightAware
05:58AM 37.9520 23.8990 126° Southeast 516 594 39,000 60 Climbing FlightAware
05:59AM 37.9050 23.9960 122° Southeast 518 596 39,000  Level FlightAware
05:59AM 37.8620 24.0830 122° Southeast 519 597 39,000 -120 Level FlightAware
06:00AM 37.8210 24.1640 123° Southeast 519 597 38,900  Descending FlightAware
06:00AM 37.7720 24.2580 123° Southeast 520 598 39,000 60 Climbing FlightAware
06:01AM 37.7250 24.3490 123° Southeast 521 600 39,000  Level FlightAware
06:01AM 37.6770 24.4420 123° Southeast 522 601 39,000 -120 Level FlightAware
06:02AM 37.6340 24.5250 123° Southeast 523 602 38,900 -120 Descending FlightAware
06:03AM 37.5850 24.6210 123° Southeast 524 603 38,900 60 Level FlightAware
06:03AM 37.5420 24.7040 123° Southeast 525 604 39,000  Climbing FlightAware
06:04AM 37.4930 24.7980 123° Southeast 527 606 38,900 -120 Descending FlightAware
06:04AM 37.4470 24.8870 123° Southeast 527 606 38,900 60 Level FlightAware
06:05AM 37.3980 24.9830 123° Southeast 529 609 39,000 60 Climbing FlightAware
06:05AM 37.3550 25.0640 124° Southeast 532 612 39,000  Level FlightAware
06:06AM 37.3080 25.1550 123° Southeast 534 615 39,000  Level FlightAware
06:07AM 37.2610 25.2440 124° Southeast 536 617 39,000 -120 Level FlightAware
06:07AM 37.2140 25.3330 124° Southeast 537 618 38,900  Descending FlightAware
06:08AM 37.1620 25.4330 123° Southeast 538 619 39,000  Climbing FlightAware
06:08AM 37.1150 25.5220 123° Southeast 538 619 38,900  Descending FlightAware
06:09AM 37.0650 25.6170 123° Southeast 538 619 39,000 60 Climbing FlightAware
06:10AM 37.0220 25.6980 124° Southeast 538 619 39,000  Level FlightAware
06:10AM 36.9720 25.7920 124° Southeast 538 619 39,000  Level FlightAware
06:11AM 36.9390 25.8550 123° Southeast 539 620 39,000  Level FlightAware
06:11AM 36.8700 25.9850 124° Southeast 541 623 39,000 -120 Level FlightAware
06:12AM 36.8190 26.0800 124° Southeast 542 624 38,900 -120 Descending FlightAware
06:13AM 36.7740 26.1630 124° Southeast 543 625 38,900  Level FlightAware
06:13AM 36.7250 26.2560 123° Southeast 543 625 38,900 60 Level FlightAware
06:14AM 36.6740 26.3500 124° Southeast 544 626 39,000 60 Climbing FlightAware
06:14AM 36.6240 26.4430 124° Southeast 545 627 39,000  Level FlightAware
06:15AM 36.5790 26.5270 124° Southeast 547 629 39,000 -120 Level FlightAware
06:15AM 36.5280 26.6200 124° Southeast 547 629 38,900  Descending FlightAware
06:16AM 36.4770 26.7140 124° Southeast 547 629 39,000 60 Climbing FlightAware
06:17AM 36.4250 26.8090 124° Southeast 549 632 39,000  Level FlightAware
06:17AM 36.3800 26.8920 124° Southeast 550 633 39,000 -120 Level FlightAware
06:18AM 36.3330 26.9790 124° Southeast 550 633 38,900 -120 Descending FlightAware
06:18AM 36.2830 27.0700 124° Southeast 550 633 38,900  Level FlightAware
06:19AM 36.2390 27.1500 124° Southeast 550 633 38,900  Level FlightAware
06:20AM 36.1960 27.2300 124° Southeast 550 633 38,900  Level FlightAware
06:20AM 36.1520 27.3100 124° Southeast 550 633 38,900  Level FlightAware
06:21AM 36.1090 27.3900 124° Southeast 550 633 38,900  Level FlightAware
06:21AM 36.0650 27.4700 124° Southeast 550 633 38,900  Level FlightAware
06:22AM 36.0220 27.5490 124° Southeast 550 633 38,900  Level FlightAware
06:23AM 35.9780 27.6290 124° Southeast 550 633 38,900  Level FlightAware
06:23AM 35.9350 27.7090 124° Southeast 550 633 38,900  Level FlightAware
06:24AM 35.8910 27.7890 124° Southeast 550 633 38,900  Level FlightAware
06:24AM 35.8450 27.8730 124° Southeast 550 633 38,900  Level FlightAware
06:25AM 35.8020 27.9520 124° Southeast 550 633 38,900 60 Level FlightAware
06:26AM 35.6570 28.1890 127° Southeast 536 617 39,000  Climbing FlightAware
06:26AM 35.6070 28.2790 124° Southeast 535 616 38,900  Descending FlightAware
06:27AM 35.5600 28.3600 125° Southeast 535 616 39,000  Climbing FlightAware
06:27AM 35.5090 28.4490 125° Southeast 535 616 38,900  Descending FlightAware
06:28AM 35.4580 28.5390 125° Southeast 536 617 39,000 60 Climbing FlightAware
06:29AM 35.4080 28.6260 125° Southeast 537 618 39,000  Level FlightAware
06:29AM 35.3610 28.7080 125° Southeast 537 618 39,000  Level FlightAware
06:30AM 35.3060 28.8040 125° Southeast 537 618 39,000  Level FlightAware
06:31AM 35.2300 28.9350 125° Southeast 554 638 39,000  Level FlightAware
06:31AM 35.1840 29.0140 125° Southeast 532 612 39,000  Level FlightAware
06:32AM 35.1260 29.1120 126° Southeast 627 722 39,000  Level FlightAware
06:33AM 35.0680 29.2160 124° Southeast 532 612 39,000  Level FlightAware
06:33AM 35.0190 29.2950 127° Southeast 575 662 39,000  Level FlightAware
06:34AM 34.9190 29.4660 125° Southeast 38,900  Descending FlightAware
06:35AM 34.8680 29.5520 126° Southeast 528 608 39,000 60 Climbing FlightAware
06:35AM 34.8170 29.6390 126° Southeast 527 606 39,000 -120 Level FlightAware
06:36AM 34.7750 29.7100 126° Southeast 526 605 38,900  Descending FlightAware
06:37AM 34.7170 29.8060 126° Southeast 525 604 39,000  Climbing FlightAware
06:38AM 34.6440 29.9300 126° Southeast 525 604 38,900 -120 Descending FlightAware
06:38AM 34.6020 30.0040 125° Southeast 525 604 38,900  Level FlightAware
06:39AM 34.5590 30.0780 125° Southeast 525 604 38,900 60 Level FlightAware
06:39AM 34.5020 30.2120 117° Southeast 529 609 39,000 60 Climbing FlightAware
06:40AM 34.4580 30.3070 119° Southeast 527 606 39,000  Level FlightAware
06:41AM 34.4190 30.3880 120° Southeast 522 601 39,000 -120 Level FlightAware
06:41AM 34.3720 30.4870 120° Southeast 521 600 38,900  Descending FlightAware
06:42AM 34.3220 30.5900 120° Southeast 520 598 39,000 60 Climbing FlightAware
06:42AM 34.2800 30.6780 120° Southeast 519 597 39,000  Level FlightAware
06:43AM 34.2260 30.7880 121° Southeast 520 598 39,000  Level FlightAware
06:44AM 34.1830 30.8770 120° Southeast 520 598 39,000  Level FlightAware
06:44AM 34.1350 30.9750 121° Southeast 520 598 39,000  Level FlightAware
06:45AM 34.0980 31.0510 120° Southeast 521 600 39,000 -120 Level FlightAware
06:45AM 34.0540 31.1420 120° Southeast 520 598 38,900 -120 Descending FlightAware
06:46AM 34.0100 31.2310 121° Southeast 520 598 38,900 60 Level FlightAware
06:47AM 33.9670 31.3190 120° Southeast 520 598 39,000  Climbing FlightAware
06:47AM 33.9230 31.4070 121° Southeast 520 598 38,900  Descending FlightAware
06:48AM 33.8790 31.4960 121° Southeast 520 598 39,000 60 Climbing FlightAware
06:48AM 33.8350 31.5850 121° Southeast 521 600 39,000  Level FlightAware
06:49AM 33.7930 31.6700 121° Southeast 521 600 39,000  Level FlightAware
06:50AM 33.7420 31.7720 121° Southeast 521 600 39,000  Level FlightAware
06:50AM 33.7000 31.8560 121° Southeast 521 600 39,000  Level FlightAware
06:51AM 33.6540 31.9480 121° Southeast 526 605 39,000  Level FlightAware
06:51AM 33.6150 32.0240 122° Southeast 525 604 39,000  Level FlightAware
06:52AM 33.5660 32.1210 121° Southeast 525 604 39,000  Level FlightAware
06:53AM 33.5210 32.2100 121° Southeast 527 606 39,000 -120 Level FlightAware
06:53AM 33.4750 32.3010 121° Southeast 525 604 38,900 -540 Descending FlightAware
06:54AM 33.4240 32.4020 121° Southeast 523 602 38,300 -1,140 Descending FlightAware
06:54AM 33.3780 32.4920 121° Southeast 525 604 37,400 -1,740 Descending FlightAware
06:55AM 33.3400 32.5660 122° Southeast 520 598 36,400 -2,100 Descending FlightAware
06:56AM 33.2930 32.6570 122° Southeast 513 590 35,100 -1,260 Descending FlightAware
06:56AM 33.2440 32.7530 121° Southeast 512 589 34,900 -180 Descending FlightAware
06:57AM 33.2090 32.8210 122° Southeast 512 589 34,900 60 Level FlightAware
06:57AM 33.1580 32.9180 122° Southeast 514 592 35,000  Climbing FlightAware
06:58AM 33.1160 33.0000 121° Southeast 514 592 34,900 -720 Descending FlightAware
06:59AM 33.0710 33.0860 122° Southeast 582 670 34,200 -2,340 Descending FlightAware
06:59AM 33.0340 33.1580 121° Southeast 518 596 32,300 -2,400 Descending FlightAware
07:00AM 32.9820 33.2580 122° Southeast 523 602 31,100 -3,240 Descending FlightAware
07:00AM 32.9320 33.3540 122° Southeast 508 585 28,100 -4,260 Descending FlightAware
07:01AM 32.8840 33.4450 122° Southeast 493 567 26,300 -2,820 Descending FlightAware
07:02AM 32.8410 33.5260 122° Southeast 480 552 24,700 -2,700 Descending FlightAware
07:02AM 32.8050 33.5940 122° Southeast 464 534 23,300 -2,700 Descending FlightAware
07:03AM 32.7620 33.6740 123° Southeast 448 516 21,600 -2,760 Descending FlightAware
07:03AM 32.7240 33.7460 122° Southeast 440 506 20,000 -2,760 Descending FlightAware
07:04AM 32.6870 33.8140 123° Southeast 429 494 18,500 -2,700 Descending FlightAware
07:04AM 32.6490 33.8850 122° Southeast 420 483 16,900 -2,700 Descending FlightAware
07:05AM 32.6120 33.9560 122° Southeast 412 474 15,300 -2,580 Descending FlightAware
07:06AM 32.5800 34.0150 123° Southeast 405 466 14,000 -2,400 Descending FlightAware
07:06AM 32.5440 34.0820 123° Southeast 393 452 12,600 -2,340 Descending FlightAware
07:07AM 32.5070 34.1440 125° Southeast 382 440 11,200 -1,500 Descending FlightAware
07:08AM 32.4490 34.2140 134° Southeast 369 425 10,400 -540 Descending FlightAware
07:08AM 32.4120 34.2580 135° Southeast 369 425 10,400  Level FlightAware
07:09AM 32.3750 34.3020 135° Southeast 369 425 10,400 -1,860 Level FlightAware
07:09AM 32.3440 34.3360 137° Southeast 286 329 8,400 -2,100 Descending FlightAware
07:10AM 32.3170 34.3670 136° Southeast 285 328 8,300 -120 Descending FlightAware
07:10AM 32.2980 34.3900 134° Southeast 285 328 8,300  Level FlightAware
07:11AM 32.2690 34.4230 136° Southeast 285 328 8,300  Level FlightAware
07:11AM 32.2500 34.4460 134° Southeast 285 328 8,300 -1,980 Level FlightAware
07:12AM 32.2120 34.5220 121° Southeast 256 295 5,900 -2,280 Descending FlightAware
07:13AM 32.1990 34.5470 122° Southeast 254 292 5,500 -1,020 Descending FlightAware
07:13AM 32.1870 34.5700 122° Southeast 259 298 5,200 -840 Descending FlightAware
07:13AM 32.1770 34.5880 123° Southeast 264 304 5,100 -180 Descending FlightAware
07:13AM 32.1610 34.6170 123° Southeast 264 304 5,100  Level FlightAware
07:14AM 32.1520 34.6330 124° Southeast 261 300 5,100  Level FlightAware
07:14AM 32.1340 34.6640 124° Southeast 240 276 5,100  Level FlightAware
07:14AM 32.1210 34.6870 124° Southeast 235 270 5,100  Level FlightAware
07:15AM 32.1100 34.7060 124° Southeast 237 273 5,100  Level FlightAware
07:15AM 32.0950 34.7330 123° Southeast 229 264 5,100  Level FlightAware
07:16AM 32.0830 34.7510 128° Southeast 233 268 5,100 -540 Level FlightAware
07:16AM 32.0700 34.7660 136° Southeast 228 262 4,800 -780 Descending FlightAware
07:16AM 32.0520 34.7860 137° Southeast 226 260 4,600 -300 Descending FlightAware
07:17AM 32.0330 34.8080 136° Southeast 207 238 4,600  Level FlightAware
07:17AM 32.0220 34.8200 137° Southeast 199 229 4,600 -600 Level FlightAware
07:17AM 32.0120 34.8300 140° Southeast 197 227 4,300 -1,380 Descending FlightAware
07:18AM 31.9980 34.8490 131° Southeast 194 223 3,700 -1,380 Descending FlightAware
07:18AM 31.9960 34.8580 105° East 190 219 3,500 -1,560 Descending FlightAware
07:18AM 31.9990 34.8790 80° East 187 215 3,000 -1,380 Descending FlightAware
07:18AM 32.0050 34.9060 75° East 196 226 2,500 -1,200 Descending FlightAware
07:19AM 32.0120 34.9260 68° East 180 207 2,100 -1,080 Descending FlightAware
07:19AM 32.0140 34.9300 59° Northeast 173 199 2,000 -1,020 Descending FlightAware
07:19AM 32.0190 34.9340 34° Northeast 168 193 1,900 -780 Descending FlightAware
07:19AM 32.0260 34.9360 14° North 162 186 1,800 -900 Descending FlightAware
07:20AM 32.0420 34.9300 342° North 148 170 1,400 -1,020 Descending FlightAware
07:20AM 32.0450 34.9270 320° Northwest 151 174 1,300 -780 Descending FlightAware
07:20AM 32.0470 34.9120 279° West 153 176 1,100 -780 Descending FlightAware
07:20AM 32.0460 34.9070 257° West 155 178 1,000 -1,020 Descending FlightAware
07:20AM 32.0450 34.8970 263° West 154 177 800 -840 Descending FlightAware
07:21AM 32.0410 34.8770 257° West 153 176 500 -720 Descending FlightAware
07:21AM 32.0390 34.8660 258° West 153 176 300 -720 Descending FlightAware